sensor_id;sensor_type;location;lat;lon;timestamp;temperature;humidity
61253;DHT22;47127;47.516;8.596;2023-06-19T00:00:08;20.80;99.30
61253;DHT22;47127;47.516;8.596;2023-06-19T00:02:39;20.80;99.20
61253;DHT22;47127;47.516;8.596;2023-06-19T00:05:05;21.00;99.10
61253;DHT22;47127;47.516;8.596;2023-06-19T00:07:31;21.20;98.90
61253;DHT22;47127;47.516;8.596;2023-06-19T00:09:57;21.20;98.70
61253;DHT22;47127;47.516;8.596;2023-06-19T00:12:22;21.30;98.60
61253;DHT22;47127;47.516;8.596;2023-06-19T00:14:48;21.40;98.50
61253;DHT22;47127;47.516;8.596;2023-06-19T00:17:13;21.40;98.50
61253;DHT22;47127;47.516;8.596;2023-06-19T00:19:42;21.40;98.70
61253;DHT22;47127;47.516;8.596;2023-06-19T00:22:08;21.30;98.70
61253;DHT22;47127;47.516;8.596;2023-06-19T00:24:34;21.20;98.80
61253;DHT22;47127;47.516;8.596;2023-06-19T00:26:59;21.20;98.90
61253;DHT22;47127;47.516;8.596;2023-06-19T00:29:31;21.20;98.90
61253;DHT22;47127;47.516;8.596;2023-06-19T00:31:57;21.20;98.80
61253;DHT22;47127;47.516;8.596;2023-06-19T00:34:22;21.20;98.70
61253;DHT22;47127;47.516;8.596;2023-06-19T00:36:52;21.20;98.70
61253;DHT22;47127;47.516;8.596;2023-06-19T00:39:21;21.20;98.70
61253;DHT22;47127;47.516;8.596;2023-06-19T00:41:47;21.10;99.00
61253;DHT22;47127;47.516;8.596;2023-06-19T00:44:13;21.00;99.90
61253;DHT22;47127;47.516;8.596;2023-06-19T00:46:40;20.90;99.90
61253;DHT22;47127;47.516;8.596;2023-06-19T00:49:07;20.80;99.90
61253;DHT22;47127;47.516;8.596;2023-06-19T00:51:33;20.80;99.90
61253;DHT22;47127;47.516;8.596;2023-06-19T00:53:58;20.80;99.90
61253;DHT22;47127;47.516;8.596;2023-06-19T00:56:25;20.80;99.90
61253;DHT22;47127;47.516;8.596;2023-06-19T00:58:52;21.00;99.90
61253;DHT22;47127;47.516;8.596;2023-06-19T01:01:19;21.10;99.90
61253;DHT22;47127;47.516;8.596;2023-06-19T01:03:46;21.30;99.90
61253;DHT22;47127;47.516;8.596;2023-06-19T01:06:19;21.40;99.90
61253;DHT22;47127;47.516;8.596;2023-06-19T01:09:02;21.40;99.90
61253;DHT22;47127;47.516;8.596;2023-06-19T01:11:35;21.30;99.90
61253;DHT22;47127;47.516;8.596;2023-06-19T01:14:13;21.40;99.90
61253;DHT22;47127;47.516;8.596;2023-06-19T01:16:39;21.50;99.80
61253;DHT22;47127;47.516;8.596;2023-06-19T01:19:09;21.50;99.90
61253;DHT22;47127;47.516;8.596;2023-06-19T01:21:35;21.40;99.90
61253;DHT22;47127;47.516;8.596;2023-06-19T01:24:02;21.40;99.90
61253;DHT22;47127;47.516;8.596;2023-06-19T01:26:28;21.50;99.90
61253;DHT22;47127;47.516;8.596;2023-06-19T01:28:54;21.50;99.90
61253;DHT22;47127;47.516;8.596;2023-06-19T01:31:54;21.50;99.90
61253;DHT22;47127;47.516;8.596;2023-06-19T01:34:25;21.40;99.90
61253;DHT22;47127;47.516;8.596;2023-06-19T01:36:52;21.30;99.90
61253;DHT22;47127;47.516;8.596;2023-06-19T01:39:22;21.40;99.90
61253;DHT22;47127;47.516;8.596;2023-06-19T01:41:48;21.30;99.90
61253;DHT22;47127;47.516;8.596;2023-06-19T01:44:15;21.30;99.90
61253;DHT22;47127;47.516;8.596;2023-06-19T01:46:40;21.10;99.90
61253;DHT22;47127;47.516;8.596;2023-06-19T01:49:07;21.10;99.90
61253;DHT22;47127;47.516;8.596;2023-06-19T01:51:34;21.20;99.90
61253;DHT22;47127;47.516;8.596;2023-06-19T01:54:00;21.00;99.90
61253;DHT22;47127;47.516;8.596;2023-06-19T01:56:26;20.80;99.90
61253;DHT22;47127;47.516;8.596;2023-06-19T01:58:51;20.90;99.90
61253;DHT22;47127;47.516;8.596;2023-06-19T02:01:17;20.80;99.90
61253;DHT22;47127;47.516;8.596;2023-06-19T02:03:42;20.60;99.90
61253;DHT22;47127;47.516;8.596;2023-06-19T02:06:08;20.40;99.90
61253;DHT22;47127;47.516;8.596;2023-06-19T02:08:33;20.10;99.90
61253;DHT22;47127;47.516;8.596;2023-06-19T02:10:59;20.00;99.90
61253;DHT22;47127;47.516;8.596;2023-06-19T02:13:24;20.00;99.90
61253;DHT22;47127;47.516;8.596;2023-06-19T02:15:50;20.10;99.90
61253;DHT22;47127;47.516;8.596;2023-06-19T02:18:16;20.20;99.90
61253;DHT22;47127;47.516;8.596;2023-06-19T02:20:42;20.20;99.90
61253;DHT22;47127;47.516;8.596;2023-06-19T02:23:07;20.20;99.90
61253;DHT22;47127;47.516;8.596;2023-06-19T02:25:33;20.20;99.90
61253;DHT22;47127;47.516;8.596;2023-06-19T02:28:01;20.10;99.90
61253;DHT22;47127;47.516;8.596;2023-06-19T02:30:28;20.00;99.90
61253;DHT22;47127;47.516;8.596;2023-06-19T02:32:54;20.00;99.90
61253;DHT22;47127;47.516;8.596;2023-06-19T02:35:19;20.00;99.90
61253;DHT22;47127;47.516;8.596;2023-06-19T02:37:45;20.10;99.90
61253;DHT22;47127;47.516;8.596;2023-06-19T02:40:13;20.10;99.90
61253;DHT22;47127;47.516;8.596;2023-06-19T02:42:40;20.20;99.90
61253;DHT22;47127;47.516;8.596;2023-06-19T02:45:06;20.20;99.90
61253;DHT22;47127;47.516;8.596;2023-06-19T02:47:32;20.30;99.90
61253;DHT22;47127;47.516;8.596;2023-06-19T02:50:02;20.30;99.90
61253;DHT22;47127;47.516;8.596;2023-06-19T02:52:30;20.30;99.90
61253;DHT22;47127;47.516;8.596;2023-06-19T02:54:55;20.30;99.90
61253;DHT22;47127;47.516;8.596;2023-06-19T02:57:21;20.30;99.90
61253;DHT22;47127;47.516;8.596;2023-06-19T02:59:47;20.20;99.90
61253;DHT22;47127;47.516;8.596;2023-06-19T03:02:13;20.10;99.90
61253;DHT22;47127;47.516;8.596;2023-06-19T03:04:40;20.00;99.90
61253;DHT22;47127;47.516;8.596;2023-06-19T03:07:06;19.90;99.90
61253;DHT22;47127;47.516;8.596;2023-06-19T03:09:32;19.80;99.90
61253;DHT22;47127;47.516;8.596;2023-06-19T03:11:57;19.80;99.90
61253;DHT22;47127;47.516;8.596;2023-06-19T03:14:23;19.90;99.90
61253;DHT22;47127;47.516;8.596;2023-06-19T03:16:48;19.90;99.90
61253;DHT22;47127;47.516;8.596;2023-06-19T03:19:14;19.80;99.90
61253;DHT22;47127;47.516;8.596;2023-06-19T03:21:39;19.80;99.90
61253;DHT22;47127;47.516;8.596;2023-06-19T03:24:05;19.70;99.90
61253;DHT22;47127;47.516;8.596;2023-06-19T03:26:31;19.70;99.90
61253;DHT22;47127;47.516;8.596;2023-06-19T03:28:56;19.80;99.90
61253;DHT22;47127;47.516;8.596;2023-06-19T03:31:22;19.80;99.90
61253;DHT22;47127;47.516;8.596;2023-06-19T03:33:47;19.80;99.90
61253;DHT22;47127;47.516;8.596;2023-06-19T03:36:13;19.90;99.90
61253;DHT22;47127;47.516;8.596;2023-06-19T03:38:39;20.00;99.90
61253;DHT22;47127;47.516;8.596;2023-06-19T03:41:04;20.00;99.90
61253;DHT22;47127;47.516;8.596;2023-06-19T03:43:30;20.00;99.90
61253;DHT22;47127;47.516;8.596;2023-06-19T03:45:55;20.00;99.90
61253;DHT22;47127;47.516;8.596;2023-06-19T03:48:21;20.00;99.90
61253;DHT22;47127;47.516;8.596;2023-06-19T03:50:46;20.00;99.90
61253;DHT22;47127;47.516;8.596;2023-06-19T03:53:12;20.00;99.90
61253;DHT22;47127;47.516;8.596;2023-06-19T03:55:38;19.90;99.90
61253;DHT22;47127;47.516;8.596;2023-06-19T03:58:03;19.90;99.90
61253;DHT22;47127;47.516;8.596;2023-06-19T04:00:29;20.00;99.90
61253;DHT22;47127;47.516;8.596;2023-06-19T04:02:54;20.00;99.90
61253;DHT22;47127;47.516;8.596;2023-06-19T04:05:20;20.00;99.90
61253;DHT22;47127;47.516;8.596;2023-06-19T04:07:45;19.90;99.90
61253;DHT22;47127;47.516;8.596;2023-06-19T04:10:11;20.00;99.90
61253;DHT22;47127;47.516;8.596;2023-06-19T04:12:38;20.00;99.90
61253;DHT22;47127;47.516;8.596;2023-06-19T04:15:04;20.00;99.90
61253;DHT22;47127;47.516;8.596;2023-06-19T04:17:29;20.00;99.90
61253;DHT22;47127;47.516;8.596;2023-06-19T04:19:55;20.00;99.90
61253;DHT22;47127;47.516;8.596;2023-06-19T04:22:20;20.00;99.90
61253;DHT22;47127;47.516;8.596;2023-06-19T04:24:46;20.00;99.90
61253;DHT22;47127;47.516;8.596;2023-06-19T04:27:11;20.00;99.90
61253;DHT22;47127;47.516;8.596;2023-06-19T04:29:37;20.00;99.90
61253;DHT22;47127;47.516;8.596;2023-06-19T04:32:03;19.90;99.90
61253;DHT22;47127;47.516;8.596;2023-06-19T04:34:40;19.90;99.90
61253;DHT22;47127;47.516;8.596;2023-06-19T04:37:06;19.80;99.90
61253;DHT22;47127;47.516;8.596;2023-06-19T04:39:33;19.90;99.90
61253;DHT22;47127;47.516;8.596;2023-06-19T04:41:59;19.90;99.90
61253;DHT22;47127;47.516;8.596;2023-06-19T04:44:25;19.90;99.90
61253;DHT22;47127;47.516;8.596;2023-06-19T04:46:51;19.90;99.90
61253;DHT22;47127;47.516;8.596;2023-06-19T04:49:16;19.90;99.90
61253;DHT22;47127;47.516;8.596;2023-06-19T04:51:42;19.90;99.90
61253;DHT22;47127;47.516;8.596;2023-06-19T04:54:07;19.90;99.90
61253;DHT22;47127;47.516;8.596;2023-06-19T04:56:33;19.80;99.90
61253;DHT22;47127;47.516;8.596;2023-06-19T04:58:59;19.80;99.90
61253;DHT22;47127;47.516;8.596;2023-06-19T05:01:27;19.80;99.90
61253;DHT22;47127;47.516;8.596;2023-06-19T05:03:54;19.80;99.90
61253;DHT22;47127;47.516;8.596;2023-06-19T05:06:23;19.80;99.90
61253;DHT22;47127;47.516;8.596;2023-06-19T05:08:49;19.90;99.90
61253;DHT22;47127;47.516;8.596;2023-06-19T05:11:15;19.90;99.90
61253;DHT22;47127;47.516;8.596;2023-06-19T05:13:40;19.90;99.90
61253;DHT22;47127;47.516;8.596;2023-06-19T05:16:06;19.80;99.90
61253;DHT22;47127;47.516;8.596;2023-06-19T05:18:31;19.70;99.90
61253;DHT22;47127;47.516;8.596;2023-06-19T05:20:57;19.70;99.90
61253;DHT22;47127;47.516;8.596;2023-06-19T05:23:22;19.70;99.90
61253;DHT22;47127;47.516;8.596;2023-06-19T05:25:48;19.70;99.90
61253;DHT22;47127;47.516;8.596;2023-06-19T05:28:14;19.80;99.90
61253;DHT22;47127;47.516;8.596;2023-06-19T05:30:39;19.80;99.90
61253;DHT22;47127;47.516;8.596;2023-06-19T05:33:05;19.80;99.90
61253;DHT22;47127;47.516;8.596;2023-06-19T05:35:30;19.80;99.90
61253;DHT22;47127;47.516;8.596;2023-06-19T05:37:57;19.70;99.90
61253;DHT22;47127;47.516;8.596;2023-06-19T05:40:23;19.80;99.90
61253;DHT22;47127;47.516;8.596;2023-06-19T05:42:48;19.80;99.90
61253;DHT22;47127;47.516;8.596;2023-06-19T05:45:14;19.90;99.90
61253;DHT22;47127;47.516;8.596;2023-06-19T05:47:39;20.00;99.90
61253;DHT22;47127;47.516;8.596;2023-06-19T05:50:05;20.00;99.90
61253;DHT22;47127;47.516;8.596;2023-06-19T05:52:31;20.10;99.90
61253;DHT22;47127;47.516;8.596;2023-06-19T05:54:56;20.20;99.90
61253;DHT22;47127;47.516;8.596;2023-06-19T05:57:23;20.30;99.90
61253;DHT22;47127;47.516;8.596;2023-06-19T05:59:50;20.30;99.90
61253;DHT22;47127;47.516;8.596;2023-06-19T06:02:19;20.30;99.90
61253;DHT22;47127;47.516;8.596;2023-06-19T06:04:45;20.50;99.90
61253;DHT22;47127;47.516;8.596;2023-06-19T06:07:11;20.40;99.90
61253;DHT22;47127;47.516;8.596;2023-06-19T06:09:37;20.50;99.90
61253;DHT22;47127;47.516;8.596;2023-06-19T06:12:03;20.50;99.90
61253;DHT22;47127;47.516;8.596;2023-06-19T06:14:28;20.50;99.90
61253;DHT22;47127;47.516;8.596;2023-06-19T06:16:54;20.60;99.90
61253;DHT22;47127;47.516;8.596;2023-06-19T06:19:20;20.60;99.90
61253;DHT22;47127;47.516;8.596;2023-06-19T06:21:48;20.60;99.90
61253;DHT22;47127;47.516;8.596;2023-06-19T06:24:14;20.60;99.90
61253;DHT22;47127;47.516;8.596;2023-06-19T06:26:39;20.70;99.90
61253;DHT22;47127;47.516;8.596;2023-06-19T06:29:05;20.70;99.90
61253;DHT22;47127;47.516;8.596;2023-06-19T06:31:30;20.70;99.90
61253;DHT22;47127;47.516;8.596;2023-06-19T06:33:56;20.80;99.90
61253;DHT22;47127;47.516;8.596;2023-06-19T06:36:22;20.90;99.90
61253;DHT22;47127;47.516;8.596;2023-06-19T06:38:48;20.80;99.90
61253;DHT22;47127;47.516;8.596;2023-06-19T06:41:13;20.90;99.90
61253;DHT22;47127;47.516;8.596;2023-06-19T06:43:40;20.90;99.90
61253;DHT22;47127;47.516;8.596;2023-06-19T06:46:08;21.00;99.90
61253;DHT22;47127;47.516;8.596;2023-06-19T06:48:36;21.20;99.90
61253;DHT22;47127;47.516;8.596;2023-06-19T06:51:02;21.40;99.90
61253;DHT22;47127;47.516;8.596;2023-06-19T06:53:28;21.40;99.90
61253;DHT22;47127;47.516;8.596;2023-06-19T06:55:54;21.50;99.90
61253;DHT22;47127;47.516;8.596;2023-06-19T06:58:20;21.70;99.90
61253;DHT22;47127;47.516;8.596;2023-06-19T07:00:46;21.90;99.90
61253;DHT22;47127;47.516;8.596;2023-06-19T07:03:13;22.10;99.90
61253;DHT22;47127;47.516;8.596;2023-06-19T07:05:48;22.10;99.90
61253;DHT22;47127;47.516;8.596;2023-06-19T07:08:14;22.00;99.90
61253;DHT22;47127;47.516;8.596;2023-06-19T07:10:39;21.80;99.90
61253;DHT22;47127;47.516;8.596;2023-06-19T07:13:05;21.70;99.90
61253;DHT22;47127;47.516;8.596;2023-06-19T07:15:31;21.70;99.90
61253;DHT22;47127;47.516;8.596;2023-06-19T07:17:57;21.70;99.90
61253;DHT22;47127;47.516;8.596;2023-06-19T07:20:23;21.70;99.90
61253;DHT22;47127;47.516;8.596;2023-06-19T07:22:51;21.80;99.90
61253;DHT22;47127;47.516;8.596;2023-06-19T07:25:17;21.80;99.90
61253;DHT22;47127;47.516;8.596;2023-06-19T07:27:43;21.80;99.90
61253;DHT22;47127;47.516;8.596;2023-06-19T07:30:08;21.90;99.90
61253;DHT22;47127;47.516;8.596;2023-06-19T07:32:34;22.10;99.90
61253;DHT22;47127;47.516;8.596;2023-06-19T07:35:00;22.20;99.90
61253;DHT22;47127;47.516;8.596;2023-06-19T07:37:25;22.20;99.90
61253;DHT22;47127;47.516;8.596;2023-06-19T07:39:52;22.20;99.90
61253;DHT22;47127;47.516;8.596;2023-06-19T07:42:19;22.10;99.90
61253;DHT22;47127;47.516;8.596;2023-06-19T07:44:46;22.20;99.90
61253;DHT22;47127;47.516;8.596;2023-06-19T07:47:12;22.30;99.90
61253;DHT22;47127;47.516;8.596;2023-06-19T07:49:40;22.40;99.90
61253;DHT22;47127;47.516;8.596;2023-06-19T07:52:06;22.50;99.90
61253;DHT22;47127;47.516;8.596;2023-06-19T07:54:35;22.60;99.90
61253;DHT22;47127;47.516;8.596;2023-06-19T07:57:00;22.60;99.90
61253;DHT22;47127;47.516;8.596;2023-06-19T07:59:26;22.70;99.90
61253;DHT22;47127;47.516;8.596;2023-06-19T08:01:51;22.80;99.90
61253;DHT22;47127;47.516;8.596;2023-06-19T08:04:17;22.90;99.90
61253;DHT22;47127;47.516;8.596;2023-06-19T08:06:43;23.00;99.90
61253;DHT22;47127;47.516;8.596;2023-06-19T08:09:08;23.10;99.90
61253;DHT22;47127;47.516;8.596;2023-06-19T08:11:34;23.30;99.90
61253;DHT22;47127;47.516;8.596;2023-06-19T08:14:00;23.30;99.90
61253;DHT22;47127;47.516;8.596;2023-06-19T08:16:26;23.20;99.90
61253;DHT22;47127;47.516;8.596;2023-06-19T08:18:52;23.60;99.90
61253;DHT22;47127;47.516;8.596;2023-06-19T08:21:18;23.80;99.90
61253;DHT22;47127;47.516;8.596;2023-06-19T08:23:45;23.90;99.90
61253;DHT22;47127;47.516;8.596;2023-06-19T08:26:11;23.80;99.90
61253;DHT22;47127;47.516;8.596;2023-06-19T08:28:37;24.10;99.90
61253;DHT22;47127;47.516;8.596;2023-06-19T08:31:03;24.30;99.90
61253;DHT22;47127;47.516;8.596;2023-06-19T08:33:29;24.10;99.90
61253;DHT22;47127;47.516;8.596;2023-06-19T08:35:54;24.00;99.90
61253;DHT22;47127;47.516;8.596;2023-06-19T08:38:20;24.10;99.90
61253;DHT22;47127;47.516;8.596;2023-06-19T08:40:45;23.90;99.90
61253;DHT22;47127;47.516;8.596;2023-06-19T08:43:11;24.00;99.90
61253;DHT22;47127;47.516;8.596;2023-06-19T08:45:37;24.20;99.90
61253;DHT22;47127;47.516;8.596;2023-06-19T08:48:03;24.40;99.90
61253;DHT22;47127;47.516;8.596;2023-06-19T08:50:32;24.50;99.90
61253;DHT22;47127;47.516;8.596;2023-06-19T08:52:58;24.60;99.90
61253;DHT22;47127;47.516;8.596;2023-06-19T08:55:24;24.40;99.90
61253;DHT22;47127;47.516;8.596;2023-06-19T08:57:51;24.00;99.90
61253;DHT22;47127;47.516;8.596;2023-06-19T09:00:26;24.20;99.90
61253;DHT22;47127;47.516;8.596;2023-06-19T09:03:00;24.30;99.90
61253;DHT22;47127;47.516;8.596;2023-06-19T09:05:29;24.40;99.90
61253;DHT22;47127;47.516;8.596;2023-06-19T09:07:59;24.50;99.90
61253;DHT22;47127;47.516;8.596;2023-06-19T09:10:28;24.50;99.90
61253;DHT22;47127;47.516;8.596;2023-06-19T09:13:01;24.50;99.90
61253;DHT22;47127;47.516;8.596;2023-06-19T09:15:32;24.50;99.90
61253;DHT22;47127;47.516;8.596;2023-06-19T09:18:08;24.60;99.90
61253;DHT22;47127;47.516;8.596;2023-06-19T09:20:37;24.60;99.90
61253;DHT22;47127;47.516;8.596;2023-06-19T09:23:04;24.50;99.90
61253;DHT22;47127;47.516;8.596;2023-06-19T09:25:30;24.60;99.90
61253;DHT22;47127;47.516;8.596;2023-06-19T09:27:56;24.70;99.90
61253;DHT22;47127;47.516;8.596;2023-06-19T09:30:23;24.80;99.90
61253;DHT22;47127;47.516;8.596;2023-06-19T09:32:51;24.90;99.90
61253;DHT22;47127;47.516;8.596;2023-06-19T09:35:18;24.90;99.90
61253;DHT22;47127;47.516;8.596;2023-06-19T09:37:45;24.90;99.90
61253;DHT22;47127;47.516;8.596;2023-06-19T09:40:12;25.00;99.90
61253;DHT22;47127;47.516;8.596;2023-06-19T09:42:40;25.10;99.90
61253;DHT22;47127;47.516;8.596;2023-06-19T09:45:08;25.40;99.90
61253;DHT22;47127;47.516;8.596;2023-06-19T09:47:42;25.80;99.90
61253;DHT22;47127;47.516;8.596;2023-06-19T09:50:09;26.00;99.90
61253;DHT22;47127;47.516;8.596;2023-06-19T09:52:36;26.10;99.90
61253;DHT22;47127;47.516;8.596;2023-06-19T09:55:03;26.20;99.90
61253;DHT22;47127;47.516;8.596;2023-06-19T09:57:31;26.30;99.90
61253;DHT22;47127;47.516;8.596;2023-06-19T09:59:58;26.30;99.90
61253;DHT22;47127;47.516;8.596;2023-06-19T10:02:25;26.30;99.90
61253;DHT22;47127;47.516;8.596;2023-06-19T10:04:54;26.10;99.90
61253;DHT22;47127;47.516;8.596;2023-06-19T10:07:25;26.50;99.90
61253;DHT22;47127;47.516;8.596;2023-06-19T10:10:04;26.40;99.90
61253;DHT22;47127;47.516;8.596;2023-06-19T10:17:46;26.60;99.90
61253;DHT22;47127;47.516;8.596;2023-06-19T10:20:32;26.80;99.90
61253;DHT22;47127;47.516;8.596;2023-06-19T10:23:00;27.00;99.90
61253;DHT22;47127;47.516;8.596;2023-06-19T10:25:29;27.00;99.90
61253;DHT22;47127;47.516;8.596;2023-06-19T10:27:55;26.80;99.90
61253;DHT22;47127;47.516;8.596;2023-06-19T10:30:21;27.00;99.90
61253;DHT22;47127;47.516;8.596;2023-06-19T10:32:47;27.10;99.90
61253;DHT22;47127;47.516;8.596;2023-06-19T10:35:13;27.20;99.90
61253;DHT22;47127;47.516;8.596;2023-06-19T10:37:39;27.40;99.90
61253;DHT22;47127;47.516;8.596;2023-06-19T10:40:06;27.60;99.90
61253;DHT22;47127;47.516;8.596;2023-06-19T10:42:44;27.80;99.20
61253;DHT22;47127;47.516;8.596;2023-06-19T10:45:11;27.90;98.80
61253;DHT22;47127;47.516;8.596;2023-06-19T10:47:40;28.00;98.60
61253;DHT22;47127;47.516;8.596;2023-06-19T10:50:13;28.10;98.40
61253;DHT22;47127;47.516;8.596;2023-06-19T10:52:43;28.10;97.70
61253;DHT22;47127;47.516;8.596;2023-06-19T10:55:10;28.30;97.00
61253;DHT22;47127;47.516;8.596;2023-06-19T10:57:36;28.50;96.20
61253;DHT22;47127;47.516;8.596;2023-06-19T11:00:03;28.60;95.10
61253;DHT22;47127;47.516;8.596;2023-06-19T11:02:42;28.70;95.50
61253;DHT22;47127;47.516;8.596;2023-06-19T11:05:10;28.70;95.10
61253;DHT22;47127;47.516;8.596;2023-06-19T11:07:36;28.90;94.00
61253;DHT22;47127;47.516;8.596;2023-06-19T11:10:19;28.90;93.90
61253;DHT22;47127;47.516;8.596;2023-06-19T11:12:44;29.00;93.50
61253;DHT22;47127;47.516;8.596;2023-06-19T11:15:10;29.40;93.00
61253;DHT22;47127;47.516;8.596;2023-06-19T11:17:36;29.40;92.10
61253;DHT22;47127;47.516;8.596;2023-06-19T11:20:02;29.40;92.40
61253;DHT22;47127;47.516;8.596;2023-06-19T11:22:40;29.50;91.70
61253;DHT22;47127;47.516;8.596;2023-06-19T11:25:07;29.60;91.20
61253;DHT22;47127;47.516;8.596;2023-06-19T11:27:33;29.50;91.70
61253;DHT22;47127;47.516;8.596;2023-06-19T11:30:02;29.70;91.10
61253;DHT22;47127;47.516;8.596;2023-06-19T11:32:32;29.90;90.80
61253;DHT22;47127;47.516;8.596;2023-06-19T11:35:05;30.10;90.10
61253;DHT22;47127;47.516;8.596;2023-06-19T11:37:33;30.30;90.00
61253;DHT22;47127;47.516;8.596;2023-06-19T11:40:01;30.40;88.90
61253;DHT22;47127;47.516;8.596;2023-06-19T11:42:30;30.60;86.60
61253;DHT22;47127;47.516;8.596;2023-06-19T11:44:59;30.80;86.10
61253;DHT22;47127;47.516;8.596;2023-06-19T11:47:30;30.30;87.00
61253;DHT22;47127;47.516;8.596;2023-06-19T11:49:55;30.20;86.40
61253;DHT22;47127;47.516;8.596;2023-06-19T11:52:22;29.80;87.60
61253;DHT22;47127;47.516;8.596;2023-06-19T11:54:48;29.60;86.50
61253;DHT22;47127;47.516;8.596;2023-06-19T11:57:13;29.60;86.10
61253;DHT22;47127;47.516;8.596;2023-06-19T11:59:40;29.20;88.00
61253;DHT22;47127;47.516;8.596;2023-06-19T12:02:06;29.30;87.20
61253;DHT22;47127;47.516;8.596;2023-06-19T12:04:32;29.30;86.30
61253;DHT22;47127;47.516;8.596;2023-06-19T12:06:59;29.50;85.30
61253;DHT22;47127;47.516;8.596;2023-06-19T12:09:25;29.50;82.10
61253;DHT22;47127;47.516;8.596;2023-06-19T12:11:51;29.40;81.70
61253;DHT22;47127;47.516;8.596;2023-06-19T12:14:16;29.50;81.10
61253;DHT22;47127;47.516;8.596;2023-06-19T12:16:45;29.60;79.50
61253;DHT22;47127;47.516;8.596;2023-06-19T12:19:10;29.80;79.80
61253;DHT22;47127;47.516;8.596;2023-06-19T12:21:36;30.20;79.10
61253;DHT22;47127;47.516;8.596;2023-06-19T12:24:01;30.30;78.90
61253;DHT22;47127;47.516;8.596;2023-06-19T12:26:27;30.30;78.60
61253;DHT22;47127;47.516;8.596;2023-06-19T12:28:53;30.50;77.90
61253;DHT22;47127;47.516;8.596;2023-06-19T12:31:19;30.60;79.60
61253;DHT22;47127;47.516;8.596;2023-06-19T12:33:44;30.60;76.90
61253;DHT22;47127;47.516;8.596;2023-06-19T12:36:14;30.30;77.10
61253;DHT22;47127;47.516;8.596;2023-06-19T12:38:43;30.40;76.70
61253;DHT22;47127;47.516;8.596;2023-06-19T12:41:09;30.40;76.00
61253;DHT22;47127;47.516;8.596;2023-06-19T12:43:34;30.40;76.70
61253;DHT22;47127;47.516;8.596;2023-06-19T12:46:00;30.50;76.20
61253;DHT22;47127;47.516;8.596;2023-06-19T12:48:27;30.80;75.90
61253;DHT22;47127;47.516;8.596;2023-06-19T12:50:53;30.80;76.00
61253;DHT22;47127;47.516;8.596;2023-06-19T12:53:19;31.20;74.60
61253;DHT22;47127;47.516;8.596;2023-06-19T12:55:45;31.40;73.00
61253;DHT22;47127;47.516;8.596;2023-06-19T12:58:11;31.00;73.10
61253;DHT22;47127;47.516;8.596;2023-06-19T13:00:37;31.00;71.70
61253;DHT22;47127;47.516;8.596;2023-06-19T13:03:02;30.90;71.80
61253;DHT22;47127;47.516;8.596;2023-06-19T13:05:28;30.80;72.90
61253;DHT22;47127;47.516;8.596;2023-06-19T13:07:54;30.80;72.00
61253;DHT22;47127;47.516;8.596;2023-06-19T13:10:20;31.10;71.30
61253;DHT22;47127;47.516;8.596;2023-06-19T13:12:46;31.40;71.30
61253;DHT22;47127;47.516;8.596;2023-06-19T13:15:11;31.70;70.30
61253;DHT22;47127;47.516;8.596;2023-06-19T13:17:37;31.90;69.50
61253;DHT22;47127;47.516;8.596;2023-06-19T13:20:03;31.60;70.30
61253;DHT22;47127;47.516;8.596;2023-06-19T13:22:30;31.70;69.60
61253;DHT22;47127;47.516;8.596;2023-06-19T13:24:56;31.50;69.20
61253;DHT22;47127;47.516;8.596;2023-06-19T13:27:22;31.40;68.90
61253;DHT22;47127;47.516;8.596;2023-06-19T13:29:47;31.20;69.60
61253;DHT22;47127;47.516;8.596;2023-06-19T13:32:13;31.10;71.40
61253;DHT22;47127;47.516;8.596;2023-06-19T13:34:39;31.30;70.40
61253;DHT22;47127;47.516;8.596;2023-06-19T13:37:04;31.10;70.70
61253;DHT22;47127;47.516;8.596;2023-06-19T13:39:30;31.50;70.20
61253;DHT22;47127;47.516;8.596;2023-06-19T13:41:56;31.30;70.40
61253;DHT22;47127;47.516;8.596;2023-06-19T13:44:21;31.00;71.90
61253;DHT22;47127;47.516;8.596;2023-06-19T13:46:47;30.60;74.00
61253;DHT22;47127;47.516;8.596;2023-06-19T13:49:13;30.30;75.60
61253;DHT22;47127;47.516;8.596;2023-06-19T13:51:39;29.90;75.10
61253;DHT22;47127;47.516;8.596;2023-06-19T13:54:04;29.80;75.60
61253;DHT22;47127;47.516;8.596;2023-06-19T13:56:31;29.50;76.30
61253;DHT22;47127;47.516;8.596;2023-06-19T13:58:58;29.40;78.00
61253;DHT22;47127;47.516;8.596;2023-06-19T14:01:24;29.40;79.00
61253;DHT22;47127;47.516;8.596;2023-06-19T14:03:51;29.40;79.60
61253;DHT22;47127;47.516;8.596;2023-06-19T14:06:17;29.30;78.90
61253;DHT22;47127;47.516;8.596;2023-06-19T14:08:43;29.20;79.90
61253;DHT22;47127;47.516;8.596;2023-06-19T14:11:09;29.30;81.20
61253;DHT22;47127;47.516;8.596;2023-06-19T14:13:34;29.20;81.50
61253;DHT22;47127;47.516;8.596;2023-06-19T14:16:01;29.20;81.00
61253;DHT22;47127;47.516;8.596;2023-06-19T14:18:27;29.20;80.10
61253;DHT22;47127;47.516;8.596;2023-06-19T14:20:52;29.20;81.60
61253;DHT22;47127;47.516;8.596;2023-06-19T14:23:18;29.10;80.80
61253;DHT22;47127;47.516;8.596;2023-06-19T14:25:43;29.10;81.00
61253;DHT22;47127;47.516;8.596;2023-06-19T14:28:09;29.20;82.00
61253;DHT22;47127;47.516;8.596;2023-06-19T14:30:34;29.30;81.90
61253;DHT22;47127;47.516;8.596;2023-06-19T14:33:00;29.40;82.20
61253;DHT22;47127;47.516;8.596;2023-06-19T14:35:27;29.40;81.50
61253;DHT22;47127;47.516;8.596;2023-06-19T14:37:52;29.50;81.20
61253;DHT22;47127;47.516;8.596;2023-06-19T14:40:18;29.70;82.40
61253;DHT22;47127;47.516;8.596;2023-06-19T14:42:43;29.80;81.20
61253;DHT22;47127;47.516;8.596;2023-06-19T14:45:09;29.90;81.40
61253;DHT22;47127;47.516;8.596;2023-06-19T14:47:35;30.10;80.10
61253;DHT22;47127;47.516;8.596;2023-06-19T14:50:00;30.20;78.60
61253;DHT22;47127;47.516;8.596;2023-06-19T14:52:26;30.20;77.50
61253;DHT22;47127;47.516;8.596;2023-06-19T14:54:52;30.20;78.60
61253;DHT22;47127;47.516;8.596;2023-06-19T14:57:17;30.20;76.30
61253;DHT22;47127;47.516;8.596;2023-06-19T14:59:43;30.50;77.00
61253;DHT22;47127;47.516;8.596;2023-06-19T15:02:08;30.80;74.70
61253;DHT22;47127;47.516;8.596;2023-06-19T15:04:37;30.90;73.70
61253;DHT22;47127;47.516;8.596;2023-06-19T15:07:03;30.70;73.90
61253;DHT22;47127;47.516;8.596;2023-06-19T15:09:29;30.80;75.40
61253;DHT22;47127;47.516;8.596;2023-06-19T15:11:55;30.60;74.00
61253;DHT22;47127;47.516;8.596;2023-06-19T15:14:20;30.50;73.60
61253;DHT22;47127;47.516;8.596;2023-06-19T15:16:46;30.50;74.40
61253;DHT22;47127;47.516;8.596;2023-06-19T15:19:11;30.50;73.20
61253;DHT22;47127;47.516;8.596;2023-06-19T15:21:37;30.80;73.20
61253;DHT22;47127;47.516;8.596;2023-06-19T15:24:03;31.30;72.70
61253;DHT22;47127;47.516;8.596;2023-06-19T15:26:28;31.60;71.90
61253;DHT22;47127;47.516;8.596;2023-06-19T15:28:54;32.10;71.40
61253;DHT22;47127;47.516;8.596;2023-06-19T15:31:21;32.30;70.10